Time;durP1;ratioP1;P1;durP2;ratioP2;P2;SDS_P1;SDS_P2;PMS_P1;PMS_P2;Temp;Humidity;BMP_temperature;BMP_pressure;BME280_temperature;BME280_humidity;BME280_pressure;Samples;Min_cycle;Max_cycle;Signal;HPM_P1;HPM_P2
2022/06/05 00:01:23;;;;;;;4.50;3.63;;;;;;;;;;4972831;28;20218;-53
2022/06/05 00:03:53;;;;;;;4.00;3.60;;;;;;;;;;4972803;28;20258;-53
2022/06/05 00:06:22;;;;;;;4.10;3.80;;;;;;;;;;4970654;28;20282;-53
2022/06/05 00:08:56;;;;;;;5.83;4.10;;;;;;;;;;4972521;28;20238;-51
2022/06/05 00:11:24;;;;;;;5.53;4.10;;;;;;;;;;4972921;28;20383;-52
2022/06/05 00:13:52;;;;;;;4.37;3.97;;;;;;;;;;4972759;28;20301;-52
2022/06/05 00:16:20;;;;;;;5.10;3.83;;;;;;;;;;4972553;28;20203;-51
2022/06/05 00:18:46;;;;;;;3.93;3.60;;;;;;;;;;4972477;28;20198;-51
2022/06/05 00:21:13;;;;;;;5.53;4.07;;;;;;;;;;4972588;28;20234;-50
2022/06/05 00:23:39;;;;;;;4.53;3.63;;;;;;;;;;4972572;28;20238;-51
2022/06/05 00:26:10;;;;;;;4.50;4.10;;;;;;;;;;4972570;28;20250;-52
2022/06/05 00:28:39;;;;;;;5.13;4.10;;;;;;;;;;4972418;28;20258;-51
2022/06/05 00:31:12;;;;;;;4.47;4.07;;;;;;;;;;4972881;28;20213;-51
2022/06/05 00:33:38;;;;;;;6.40;4.37;;;;;;;;;;4972744;28;20202;-51
2022/06/05 00:36:10;;;;;;;4.53;3.67;;;;;;;;;;4972492;28;20207;-50
2022/06/05 00:38:39;;;;;;;5.83;3.90;;;;;;;;;;4972558;28;20198;-51
2022/06/05 00:41:12;;;;;;;4.23;3.83;;;;;;;;;;4972495;28;20233;-51
2022/06/05 00:43:40;;;;;;;5.63;4.47;;;;;;;;;;4972539;28;20213;-50
2022/06/05 00:46:06;;;;;;;4.30;3.90;;;;;;;;;;4972510;28;20210;-51
2022/06/05 00:48:32;;;;;;;4.60;4.20;;;;;;;;;;4972399;28;20691;-51
2022/06/05 00:50:58;;;;;;;6.07;4.60;;;;;;;;;;4972452;28;20289;-51
2022/06/05 00:53:24;;;;;;;4.83;4.37;;;;;;;;;;4972428;28;20202;-51
2022/06/05 00:55:52;;;;;;;5.70;4.23;;;;;;;;;;4972326;28;20198;-50
2022/06/05 00:58:18;;;;;;;4.80;4.40;;;;;;;;;;4972389;28;20202;-51
2022/06/05 01:00:47;;;;;;;5.47;4.93;;;;;;;;;;4972227;28;20201;-51
2022/06/05 01:03:13;;;;;;;5.00;4.50;;;;;;;;;;4972399;28;20245;-51
2022/06/05 01:05:40;;;;;;;5.63;4.70;;;;;;;;;;4972479;28;20547;-51
2022/06/05 01:08:06;;;;;;;5.70;5.13;;;;;;;;;;4972293;28;20688;-51
2022/06/05 01:10:37;;;;;;;5.07;4.57;;;;;;;;;;4972233;28;20213;-52
2022/06/05 01:13:05;;;;;;;4.93;4.43;;;;;;;;;;4970746;28;20254;-51
2022/06/05 01:15:35;;;;;;;5.13;4.63;;;;;;;;;;4972362;28;20227;-51
2022/06/05 01:18:06;;;;;;;6.40;4.47;;;;;;;;;;4974273;28;20212;-50
2022/06/05 01:20:38;;;;;;;5.60;4.63;;;;;;;;;;4975888;28;20217;-51
2022/06/05 01:23:23;;;;;;;5.83;5.27;;;;;;;;;;4975618;28;20234;-51
2022/06/05 01:25:58;;;;;;;6.27;4.97;;;;;;;;;;4974027;28;20354;-51
2022/06/05 01:28:26;;;;;;;5.53;4.50;;;;;;;;;;4975519;28;20265;-52
2022/06/05 01:30:56;;;;;;;4.77;4.37;;;;;;;;;;4975753;28;20226;-51
2022/06/05 01:33:24;;;;;;;5.40;4.93;;;;;;;;;;4975881;28;20230;-51
2022/06/05 01:35:54;;;;;;;5.33;4.83;;;;;;;;;;4975537;28;20249;-51
2022/06/05 01:38:29;;;;;;;5.20;4.70;;;;;;;;;;4975586;28;20733;-50
2022/06/05 01:40:58;;;;;;;5.63;4.90;;;;;;;;;;4975403;28;20202;-50
2022/06/05 01:43:26;;;;;;;6.53;5.00;;;;;;;;;;4975444;28;20187;-52
2022/06/05 01:45:54;;;;;;;5.00;4.47;;;;;;;;;;4975506;28;20278;-50
2022/06/05 01:48:22;;;;;;;6.17;5.50;;;;;;;;;;4975448;28;20623;-51
2022/06/05 01:50:49;;;;;;;6.38;5.57;;;;;;;;;;4973938;28;21079;-51
2022/06/05 01:53:18;;;;;;;5.10;4.70;;;;;;;;;;4975527;28;20191;-51
2022/06/05 01:55:47;;;;;;;6.20;5.07;;;;;;;;;;4975204;28;20286;-50
2022/06/05 01:58:16;;;;;;;5.37;4.97;;;;;;;;;;4975097;28;20218;-51
2022/06/05 02:00:43;;;;;;;6.27;4.93;;;;;;;;;;4975167;28;20203;-51
2022/06/05 02:03:10;;;;;;;5.70;5.20;;;;;;;;;;4975161;28;20222;-50
2022/06/05 02:05:39;;;;;;;6.57;5.93;;;;;;;;;;4974977;28;20209;-51
2022/06/05 02:08:09;;;;;;;5.37;4.73;;;;;;;;;;4974618;28;20191;-51
2022/06/05 02:10:37;;;;;;;6.37;5.20;;;;;;;;;;4974981;28;20205;-51
2022/06/05 02:13:03;;;;;;;6.07;5.20;;;;;;;;;;4975054;28;20199;-51
2022/06/05 02:15:31;;;;;;;5.43;4.93;;;;;;;;;;4973328;28;20246;-51
2022/06/05 02:17:57;;;;;;;5.73;5.10;;;;;;;;;;4974981;28;20203;-52
2022/06/05 02:20:24;;;;;;;5.87;5.37;;;;;;;;;;4975033;28;20198;-51
2022/06/05 02:22:51;;;;;;;6.60;5.90;;;;;;;;;;4974688;28;20241;-50
2022/06/05 02:25:18;;;;;;;5.60;5.13;;;;;;;;;;4974882;28;20622;-51
2022/06/05 02:27:44;;;;;;;7.87;6.20;;;;;;;;;;4973773;28;20238;-52
2022/06/05 02:30:11;;;;;;;7.60;5.50;;;;;;;;;;4974639;28;20203;-50
2022/06/05 02:32:45;;;;;;;6.50;5.90;;;;;;;;;;4974768;28;20203;-50
2022/06/05 02:35:15;;;;;;;6.07;5.47;;;;;;;;;;4974875;28;20202;-50
2022/06/05 02:37:45;;;;;;;6.60;6.00;;;;;;;;;;4974780;28;20199;-51
2022/06/05 02:40:15;;;;;;;6.37;5.50;;;;;;;;;;4974435;28;20206;-51
2022/06/05 02:42:44;;;;;;;7.07;5.63;;;;;;;;;;4974356;28;20245;-50
2022/06/05 02:45:17;;;;;;;5.73;5.20;;;;;;;;;;4974313;28;20623;-51
2022/06/05 02:47:50;;;;;;;6.03;5.33;;;;;;;;;;4974453;28;20606;-50
2022/06/05 02:50:19;;;;;;;7.27;5.87;;;;;;;;;;4974365;28;20199;-50
2022/06/05 02:52:45;;;;;;;7.13;5.23;;;;;;;;;;4974363;28;20670;-51
2022/06/05 02:55:12;;;;;;;6.27;5.67;;;;;;;;;;4974089;28;20203;-50
2022/06/05 02:57:38;;;;;;;6.43;5.80;;;;;;;;;;4974174;28;20245;-51
2022/06/05 03:00:05;;;;;;;6.67;6.07;;;;;;;;;;4974227;28;20230;-50
2022/06/05 03:05:17;;;;;;;6.97;6.20;;;;;;;;;;4974084;28;20194;-51
2022/06/05 03:07:44;;;;;;;9.97;6.60;;;;;;;;;;4974171;28;20211;-51
2022/06/05 03:10:10;;;;;;;6.90;5.80;;;;;;;;;;4973545;28;20218;-51
2022/06/05 03:12:36;;;;;;;6.43;5.83;;;;;;;;;;4974027;28;20199;-51
2022/06/05 03:15:02;;;;;;;8.07;6.23;;;;;;;;;;4973601;28;20194;-51
2022/06/05 03:17:29;;;;;;;8.13;6.40;;;;;;;;;;4973676;28;20225;-51
2022/06/05 03:19:55;;;;;;;8.70;6.03;;;;;;;;;;4973860;28;20217;-50
2022/06/05 03:22:22;;;;;;;6.47;5.87;;;;;;;;;;4973436;28;20227;-51
2022/06/05 03:24:48;;;;;;;7.37;6.00;;;;;;;;;;4973780;28;20203;-51
2022/06/05 03:27:14;;;;;;;6.40;5.80;;;;;;;;;;4973565;28;20261;-50
2022/06/05 03:29:40;;;;;;;7.00;6.00;;;;;;;;;;4973196;28;20235;-51
2022/06/05 03:32:06;;;;;;;7.23;6.53;;;;;;;;;;4973514;28;20203;-51
2022/06/05 03:34:33;;;;;;;6.60;5.90;;;;;;;;;;4973547;28;20305;-51
2022/06/05 03:36:59;;;;;;;7.43;6.10;;;;;;;;;;4973266;28;20666;-50
2022/06/05 03:39:26;;;;;;;7.70;6.93;;;;;;;;;;4972865;28;20207;-50
2022/06/05 03:41:52;;;;;;;9.13;6.57;;;;;;;;;;4972996;28;20637;-51
2022/06/05 03:44:19;;;;;;;6.90;6.30;;;;;;;;;;4973347;28;20254;-51
2022/06/05 03:46:45;;;;;;;9.73;7.17;;;;;;;;;;4973197;28;20201;-50
2022/06/05 03:49:11;;;;;;;7.43;6.30;;;;;;;;;;4973203;28;20273;-51
2022/06/05 03:51:37;;;;;;;7.00;5.80;;;;;;;;;;4973304;28;20262;-50
2022/06/05 03:54:03;;;;;;;6.60;6.00;;;;;;;;;;4972876;28;20202;-51
2022/06/05 03:56:31;;;;;;;6.83;6.23;;;;;;;;;;4973223;28;20242;-50
2022/06/05 03:58:57;;;;;;;8.07;6.27;;;;;;;;;;4973150;28;20218;-50
2022/06/05 04:01:24;;;;;;;6.60;6.00;;;;;;;;;;4972854;28;20315;-51
2022/06/05 04:03:51;;;;;;;7.23;6.00;;;;;;;;;;4973096;28;20657;-50
2022/06/05 04:06:18;;;;;;;7.10;6.00;;;;;;;;;;4972615;28;20753;-51
2022/06/05 04:08:44;;;;;;;7.03;6.17;;;;;;;;;;4973104;28;20261;-49
2022/06/05 04:11:11;;;;;;;7.90;6.20;;;;;;;;;;4972832;28;20670;-50
2022/06/05 04:13:38;;;;;;;6.50;5.63;;;;;;;;;;4972743;28;20199;-50
2022/06/05 04:16:09;;;;;;;7.17;6.40;;;;;;;;;;4972855;28;20203;-50
2022/06/05 04:18:35;;;;;;;6.47;5.87;;;;;;;;;;4972999;28;20273;-50
2022/06/05 04:21:05;;;;;;;6.27;5.60;;;;;;;;;;4972731;28;20649;-51
2022/06/05 04:23:31;;;;;;;7.07;6.37;;;;;;;;;;4972855;28;20206;-50
2022/06/05 04:25:57;;;;;;;6.53;5.70;;;;;;;;;;4972610;28;20767;-50
2022/06/05 04:28:22;;;;;;;6.30;5.70;;;;;;;;;;4971970;28;20235;-50
2022/06/05 04:30:50;;;;;;;9.27;5.90;;;;;;;;;;4972761;28;20206;-49
2022/06/05 04:33:16;;;;;;;7.23;5.93;;;;;;;;;;4972457;28;20208;-50
2022/06/05 04:35:42;;;;;;;6.57;5.90;;;;;;;;;;4972553;28;20629;-50
2022/06/05 04:38:08;;;;;;;6.53;5.93;;;;;;;;;;4972587;28;20234;-50
2022/06/05 04:40:34;;;;;;;10.20;5.87;;;;;;;;;;4972346;28;20203;-49
2022/06/05 04:43:00;;;;;;;6.70;5.53;;;;;;;;;;4972236;28;20293;-49
2022/06/05 04:45:26;;;;;;;5.77;5.27;;;;;;;;;;4972463;28;20658;-50
2022/06/05 04:47:53;;;;;;;5.73;4.70;;;;;;;;;;4972079;28;20202;-50
2022/06/05 04:50:19;;;;;;;5.40;4.90;;;;;;;;;;4972425;28;20214;-51
2022/06/05 04:52:45;;;;;;;5.50;5.00;;;;;;;;;;4975823;28;20198;-49
2022/06/05 04:55:11;;;;;;;5.97;5.43;;;;;;;;;;4976258;28;20195;-49
2022/06/05 04:57:37;;;;;;;6.07;5.50;;;;;;;;;;4976350;28;20213;-50
2022/06/05 05:00:04;;;;;;;7.20;5.73;;;;;;;;;;4976172;28;20206;-50
2022/06/05 05:02:30;;;;;;;6.97;5.23;;;;;;;;;;4976172;28;20330;-51
2022/06/05 05:04:58;;;;;;;5.80;5.20;;;;;;;;;;4975964;28;20282;-52
2022/06/05 05:07:24;;;;;;;5.63;5.13;;;;;;;;;;4975955;28;20218;-51
2022/06/05 05:09:50;;;;;;;6.27;5.07;;;;;;;;;;4976082;28;20257;-50
2022/06/05 05:12:16;;;;;;;5.30;4.80;;;;;;;;;;4974560;28;20409;-50
2022/06/05 05:14:42;;;;;;;5.57;5.00;;;;;;;;;;4975076;28;20467;-51
2022/06/05 05:17:08;;;;;;;5.40;4.53;;;;;;;;;;4975551;28;20214;-51
2022/06/05 05:19:34;;;;;;;6.57;4.80;;;;;;;;;;4975821;28;20226;-50
2022/06/05 05:22:01;;;;;;;5.47;4.83;;;;;;;;;;4975708;28;20218;-50
2022/06/05 05:24:27;;;;;;;6.27;4.70;;;;;;;;;;4975576;28;20199;-51
2022/06/05 05:26:53;;;;;;;4.77;4.30;;;;;;;;;;4975409;28;20219;-50
2022/06/05 05:29:19;;;;;;;5.37;4.87;;;;;;;;;;4975234;28;20588;-49
2022/06/05 05:31:45;;;;;;;6.47;4.33;;;;;;;;;;4975562;28;20642;-51
2022/06/05 05:34:13;;;;;;;8.07;5.27;;;;;;;;;;4975507;28;20206;-49
2022/06/05 05:36:40;;;;;;;5.13;4.63;;;;;;;;;;4975293;28;20223;-50
2022/06/05 05:42:05;;;;;;;4.87;4.37;;;;;;;;;;4975399;28;20321;-49
2022/06/05 05:44:31;;;;;;;5.20;4.70;;;;;;;;;;4975324;28;20206;-49
2022/06/05 05:46:57;;;;;;;4.90;4.50;;;;;;;;;;4975407;28;20253;-51
2022/06/05 05:49:23;;;;;;;4.90;4.50;;;;;;;;;;4975296;28;20211;-51
2022/06/05 05:51:49;;;;;;;5.00;4.50;;;;;;;;;;4975330;28;20210;-50
2022/06/05 05:54:17;;;;;;;5.60;4.37;;;;;;;;;;4975038;28;20210;-50
2022/06/05 05:56:43;;;;;;;5.77;4.23;;;;;;;;;;4975137;28;20203;-49
2022/06/05 05:59:09;;;;;;;5.40;4.63;;;;;;;;;;4974930;28;20302;-49
2022/06/05 06:01:35;;;;;;;6.07;4.17;;;;;;;;;;4974616;28;20222;-50
2022/06/05 06:04:01;;;;;;;5.97;4.40;;;;;;;;;;4974225;28;20727;-51
2022/06/05 06:06:29;;;;;;;4.80;4.40;;;;;;;;;;4974275;28;20717;-50
2022/06/05 06:08:55;;;;;;;4.47;4.07;;;;;;;;;;4974990;28;20463;-50
2022/06/05 06:11:23;;;;;;;5.10;4.20;;;;;;;;;;4974506;28;20294;-52
2022/06/05 06:13:49;;;;;;;4.87;4.13;;;;;;;;;;4974815;28;20207;-51
2022/06/05 06:16:15;;;;;;;5.10;4.10;;;;;;;;;;4974356;28;20203;-49
2022/06/05 06:18:41;;;;;;;4.83;4.20;;;;;;;;;;4974726;28;20307;-50
2022/06/05 06:21:07;;;;;;;4.67;3.90;;;;;;;;;;4974470;28;20247;-50
2022/06/05 06:23:33;;;;;;;4.13;3.73;;;;;;;;;;4974660;28;20233;-49
2022/06/05 06:25:59;;;;;;;4.33;3.47;;;;;;;;;;4974078;28;20216;-49
2022/06/05 06:28:27;;;;;;;3.77;3.47;;;;;;;;;;4974294;28;20279;-51
2022/06/05 06:30:53;;;;;;;5.93;3.67;;;;;;;;;;4974650;28;20557;-49
2022/06/05 06:33:19;;;;;;;4.63;3.90;;;;;;;;;;4974304;28;20260;-49
2022/06/05 06:35:45;;;;;;;3.77;3.47;;;;;;;;;;4974653;28;20204;-51
2022/06/05 06:38:11;;;;;;;6.43;4.00;;;;;;;;;;4974290;28;20232;-52
2022/06/05 06:40:37;;;;;;;4.77;3.30;;;;;;;;;;4974303;28;20237;-51
2022/06/05 06:43:03;;;;;;;6.60;3.73;;;;;;;;;;4974456;28;20238;-50
2022/06/05 06:45:30;;;;;;;4.00;3.40;;;;;;;;;;4974127;28;20210;-50
2022/06/05 06:47:56;;;;;;;3.77;3.47;;;;;;;;;;4974343;28;20225;-50
2022/06/05 06:50:22;;;;;;;6.67;3.77;;;;;;;;;;4974071;28;20198;-52
2022/06/05 06:52:48;;;;;;;5.77;3.47;;;;;;;;;;4974095;28;20538;-51
2022/06/05 06:55:16;;;;;;;4.50;3.70;;;;;;;;;;4973982;28;20209;-51
2022/06/05 06:57:42;;;;;;;4.93;3.60;;;;;;;;;;4973912;28;20202;-50
2022/06/05 07:00:08;;;;;;;3.87;3.10;;;;;;;;;;4973882;28;20209;-52
2022/06/05 07:02:36;;;;;;;4.33;3.80;;;;;;;;;;4973827;28;20235;-51
2022/06/05 07:05:02;;;;;;;4.83;3.80;;;;;;;;;;4973629;28;20713;-51
2022/06/05 07:07:28;;;;;;;5.07;3.30;;;;;;;;;;4974046;28;20209;-51
2022/06/05 07:09:54;;;;;;;4.57;3.80;;;;;;;;;;4973797;28;20206;-51
2022/06/05 07:12:21;;;;;;;4.00;3.60;;;;;;;;;;4973567;28;20206;-51
2022/06/05 07:14:47;;;;;;;3.57;3.23;;;;;;;;;;4973828;28;20198;-51
2022/06/05 07:17:13;;;;;;;3.83;3.20;;;;;;;;;;4973468;28;20241;-51
2022/06/05 07:19:40;;;;;;;5.93;3.10;;;;;;;;;;4973817;28;20211;-52
2022/06/05 07:22:06;;;;;;;3.63;3.07;;;;;;;;;;4973269;28;20585;-53
2022/06/05 07:24:32;;;;;;;3.97;3.30;;;;;;;;;;4973083;28;20279;-53
2022/06/05 07:26:58;;;;;;;3.47;3.17;;;;;;;;;;4973575;28;20250;-51
2022/06/05 07:29:25;;;;;;;3.50;3.20;;;;;;;;;;4973151;28;20235;-49
2022/06/05 07:31:51;;;;;;;6.17;3.17;;;;;;;;;;4973456;28;20269;-55
2022/06/05 07:34:17;;;;;;;4.50;3.30;;;;;;;;;;4972969;28;20203;-51
2022/06/05 07:36:44;;;;;;;3.80;3.10;;;;;;;;;;4973313;28;20734;-52
2022/06/05 07:39:10;;;;;;;7.43;3.57;;;;;;;;;;4973576;28;20207;-52
2022/06/05 07:41:37;;;;;;;3.40;3.10;;;;;;;;;;4971546;28;20194;-52
2022/06/05 07:44:03;;;;;;;5.80;3.40;;;;;;;;;;4973199;28;20217;-52
2022/06/05 07:46:29;;;;;;;5.30;3.30;;;;;;;;;;4972851;28;20202;-52
2022/06/05 07:48:55;;;;;;;6.83;3.30;;;;;;;;;;4972789;28;20669;-51
2022/06/05 07:54:27;;;;;;;5.40;3.10;;;;;;;;;;4972927;28;20254;-53
2022/06/05 07:56:53;;;;;;;3.30;2.90;;;;;;;;;;4972722;28;20523;-53
2022/06/05 07:59:19;;;;;;;4.60;3.30;;;;;;;;;;4972782;28;20196;-53
2022/06/05 08:01:45;;;;;;;3.80;2.90;;;;;;;;;;4972525;28;20653;-52
2022/06/05 08:04:11;;;;;;;3.50;2.77;;;;;;;;;;4972804;28;20203;-53
2022/06/05 08:06:37;;;;;;;3.50;3.20;;;;;;;;;;4972552;28;20251;-53
2022/06/05 08:09:04;;;;;;;3.30;2.90;;;;;;;;;;4972572;28;20204;-53
2022/06/05 08:11:32;;;;;;;4.10;3.27;;;;;;;;;;4972577;28;20250;-53
2022/06/05 08:13:58;;;;;;;4.27;3.13;;;;;;;;;;4972609;28;20206;-53
2022/06/05 08:16:24;;;;;;;3.97;3.53;;;;;;;;;;4972198;28;20734;-52
2022/06/05 08:18:51;;;;;;;3.77;3.10;;;;;;;;;;4972497;28;20614;-53
2022/06/05 08:21:18;;;;;;;7.30;3.00;;;;;;;;;;4972092;28;20543;-53
2022/06/05 08:23:44;;;;;;;4.07;3.40;;;;;;;;;;4972446;28;20228;-53
2022/06/05 08:26:10;;;;;;;4.07;3.30;;;;;;;;;;4971750;28;20225;-53
2022/06/05 08:28:37;;;;;;;3.97;2.90;;;;;;;;;;4971966;28;20233;-54
2022/06/05 08:31:03;;;;;;;2.70;2.50;;;;;;;;;;4972491;28;20536;-53
2022/06/05 08:33:29;;;;;;;7.50;2.73;;;;;;;;;;4972103;28;20304;-53
2022/06/05 08:35:55;;;;;;;3.97;3.00;;;;;;;;;;4972443;28;20717;-53
2022/06/05 08:41:27;;;;;;;3.10;2.80;;;;;;;;;;4972100;28;20237;-53
2022/06/05 08:44:01;;;;;;;5.27;2.90;;;;;;;;;;4972056;28;20213;-53
2022/06/05 08:46:28;;;;;;;3.13;2.83;;;;;;;;;;4972226;28;20276;-53
2022/06/05 08:48:56;;;;;;;3.40;3.10;;;;;;;;;;4972368;28;20202;-52
2022/06/05 08:51:23;;;;;;;3.43;2.90;;;;;;;;;;4971990;28;20553;-53
2022/06/05 08:53:53;;;;;;;3.20;2.90;;;;;;;;;;4971930;28;20305;-52
2022/06/05 08:56:22;;;;;;;4.13;3.07;;;;;;;;;;4971730;28;20203;-53
2022/06/05 08:58:52;;;;;;;5.73;2.80;;;;;;;;;;4972307;28;20273;-53
2022/06/05 09:01:22;;;;;;;4.70;3.13;;;;;;;;;;4971997;28;20225;-54
2022/06/05 09:03:51;;;;;;;4.50;3.10;;;;;;;;;;4971619;28;20230;-52
2022/06/05 09:06:19;;;;;;;3.90;3.13;;;;;;;;;;4971654;28;20202;-51
2022/06/05 09:08:55;;;;;;;3.40;2.90;;;;;;;;;;4971901;28;20752;-54
2022/06/05 09:11:28;;;;;;;3.67;3.23;;;;;;;;;;4971855;28;20208;-54
2022/06/05 09:13:59;;;;;;;3.63;3.20;;;;;;;;;;4972024;28;20620;-53
2022/06/05 09:16:29;;;;;;;4.90;3.03;;;;;;;;;;4971871;28;20211;-53
2022/06/05 09:18:55;;;;;;;7.30;2.93;;;;;;;;;;4971754;28;20238;-53
2022/06/05 09:21:23;;;;;;;3.10;2.80;;;;;;;;;;4971712;28;20201;-53
2022/06/05 09:23:56;;;;;;;4.90;2.60;;;;;;;;;;4971788;28;20233;-52
2022/06/05 09:26:25;;;;;;;5.03;3.17;;;;;;;;;;4971488;28;20219;-53
2022/06/05 09:29:01;;;;;;;5.70;2.87;;;;;;;;;;4971861;28;20286;-54
2022/06/05 09:31:36;;;;;;;3.93;3.00;;;;;;;;;;4971823;28;20202;-52
2022/06/05 09:34:08;;;;;;;3.93;2.77;;;;;;;;;;4971664;28;20244;-52
2022/06/05 09:36:34;;;;;;;3.53;2.87;;;;;;;;;;4971493;28;20704;-53
2022/06/05 09:39:06;;;;;;;7.70;3.10;;;;;;;;;;4974164;28;20207;-53
2022/06/05 09:41:36;;;;;;;3.57;3.03;;;;;;;;;;4975408;28;20203;-54
2022/06/05 09:44:10;;;;;;;4.93;2.90;;;;;;;;;;4975337;28;20675;-53
2022/06/05 09:46:44;;;;;;;3.53;2.83;;;;;;;;;;4975258;28;20214;-54
2022/06/05 09:49:13;;;;;;;4.67;3.00;;;;;;;;;;4975199;28;20705;-54
2022/06/05 09:51:42;;;;;;;3.53;2.27;;;;;;;;;;4975104;28;20207;-54
2022/06/05 09:54:13;;;;;;;5.97;3.00;;;;;;;;;;4975319;28;20203;-53
2022/06/05 09:59:34;;;;;;;3.00;2.67;;;;;;;;;;4975433;28;20194;-53
2022/06/05 10:02:02;;;;;;;3.50;2.80;;;;;;;;;;4975301;28;20704;-53
2022/06/05 10:04:29;;;;;;;5.80;2.87;;;;;;;;;;4975207;28;20214;-53
2022/06/05 10:06:56;;;;;;;4.13;3.23;;;;;;;;;;4975217;28;20641;-53
2022/06/05 10:09:23;;;;;;;4.73;2.93;;;;;;;;;;4975224;28;20738;-53
2022/06/05 10:11:51;;;;;;;4.10;2.50;;;;;;;;;;4974943;28;20205;-53
2022/06/05 10:14:21;;;;;;;3.80;2.80;;;;;;;;;;4974704;28;20237;-53
2022/06/05 10:16:50;;;;;;;2.70;2.50;;;;;;;;;;4975077;28;20215;-52
2022/06/05 10:19:29;;;;;;;3.20;2.30;;;;;;;;;;4975022;28;20230;-53
2022/06/05 10:21:58;;;;;;;3.70;2.50;;;;;;;;;;4974882;28;20208;-53
2022/06/05 10:24:30;;;;;;;4.50;3.07;;;;;;;;;;4974959;28;20214;-54
2022/06/05 10:26:58;;;;;;;3.10;2.43;;;;;;;;;;4974616;28;20288;-53
2022/06/05 10:29:26;;;;;;;2.93;2.60;;;;;;;;;;4974733;28;20616;-53
2022/06/05 10:31:54;;;;;;;5.60;2.70;;;;;;;;;;4974730;28;20276;-53
2022/06/05 10:34:22;;;;;;;5.63;2.70;;;;;;;;;;4974915;28;20214;-52
2022/06/05 10:36:52;;;;;;;3.40;2.87;;;;;;;;;;4974484;28;20264;-51
2022/06/05 10:39:21;;;;;;;8.07;2.80;;;;;;;;;;4974745;28;20264;-53
2022/06/05 10:41:49;;;;;;;3.37;2.47;;;;;;;;;;4974369;28;20212;-54
2022/06/05 10:44:18;;;;;;;3.37;2.70;;;;;;;;;;4974718;28;20212;-52
2022/06/05 10:46:53;;;;;;;3.30;2.63;;;;;;;;;;4975035;28;20735;-53
2022/06/05 10:49:24;;;;;;;2.93;2.60;;;;;;;;;;4974183;28;20730;-52
2022/06/05 10:51:53;;;;;;;2.77;2.40;;;;;;;;;;4974791;28;20667;-52
2022/06/05 10:54:27;;;;;;;4.40;3.00;;;;;;;;;;4974174;28;20206;-53
2022/06/05 10:56:58;;;;;;;3.60;3.10;;;;;;;;;;4974050;28;20693;-53
2022/06/05 10:59:31;;;;;;;2.77;2.53;;;;;;;;;;4974577;28;20330;-53
2022/06/05 11:02:02;;;;;;;3.27;2.60;;;;;;;;;;4974242;28;20209;-53
2022/06/05 11:04:35;;;;;;;2.80;2.60;;;;;;;;;;4974317;28;20719;-53
2022/06/05 11:07:12;;;;;;;3.30;2.90;;;;;;;;;;4974556;28;20210;-53
2022/06/05 11:09:41;;;;;;;4.03;2.50;;;;;;;;;;4974095;28;20211;-53
2022/06/05 11:15:01;;;;;;;3.43;2.63;;;;;;;;;;4972248;28;20202;-53
2022/06/05 11:17:30;;;;;;;6.80;2.90;;;;;;;;;;4973849;28;20212;-53
2022/06/05 11:20:03;;;;;;;2.93;2.63;;;;;;;;;;4973936;28;20224;-51
2022/06/05 11:22:30;;;;;;;3.47;2.70;;;;;;;;;;4973763;28;20587;-53
2022/06/05 11:24:58;;;;;;;3.67;2.70;;;;;;;;;;4973679;28;20210;-53
2022/06/05 11:27:27;;;;;;;2.83;2.60;;;;;;;;;;4973281;28;20641;-54
2022/06/05 11:29:56;;;;;;;2.80;2.53;;;;;;;;;;4973212;28;20671;-53
2022/06/05 11:32:26;;;;;;;3.57;2.50;;;;;;;;;;4973835;28;20220;-54
2022/06/05 11:34:56;;;;;;;3.50;2.40;;;;;;;;;;4973623;28;20617;-53
2022/06/05 11:37:34;;;;;;;5.63;2.63;;;;;;;;;;4973289;28;20253;-53
2022/06/05 11:40:05;;;;;;;4.60;2.70;;;;;;;;;;4973389;28;20564;-53
2022/06/05 11:42:34;;;;;;;4.50;2.77;;;;;;;;;;4973174;28;20225;-53
2022/06/05 11:45:06;;;;;;;4.83;2.57;;;;;;;;;;4973138;28;20277;-53
2022/06/05 11:47:35;;;;;;;3.63;2.53;;;;;;;;;;4973028;28;20542;-52
2022/06/05 11:50:04;;;;;;;5.33;3.00;;;;;;;;;;4973135;28;20282;-54
2022/06/05 11:52:33;;;;;;;2.50;2.20;;;;;;;;;;4973180;28;20210;-53
2022/06/05 11:55:04;;;;;;;3.30;2.80;;;;;;;;;;4973032;28;20209;-53
2022/06/05 11:57:46;;;;;;;3.10;2.73;;;;;;;;;;4973198;28;20203;-53
2022/06/05 12:00:15;;;;;;;3.77;2.80;;;;;;;;;;4972720;28;20198;-54
2022/06/05 12:02:46;;;;;;;5.70;2.70;;;;;;;;;;4972492;28;20233;-53
2022/06/05 12:05:16;;;;;;;2.90;2.47;;;;;;;;;;4972737;28;20541;-53
2022/06/05 12:07:42;;;;;;;2.90;2.70;;;;;;;;;;4972464;28;20203;-53
2022/06/05 12:10:15;;;;;;;4.53;2.80;;;;;;;;;;4972423;28;20212;-53
2022/06/05 12:12:44;;;;;;;4.97;3.00;;;;;;;;;;4972534;28;20208;-53
2022/06/05 12:15:20;;;;;;;3.33;2.60;;;;;;;;;;4973011;28;20208;-52
2022/06/05 12:17:48;;;;;;;3.30;2.70;;;;;;;;;;4972710;28;20548;-52
2022/06/05 12:20:18;;;;;;;3.43;2.70;;;;;;;;;;4972675;28;20554;-52
2022/06/05 12:22:46;;;;;;;3.97;2.93;;;;;;;;;;4972464;28;20219;-53
2022/06/05 12:25:21;;;;;;;3.57;2.70;;;;;;;;;;4972444;28;20217;-53
2022/06/05 12:27:57;;;;;;;4.27;2.90;;;;;;;;;;4972183;28;20204;-52
2022/06/05 12:30:24;;;;;;;4.23;2.87;;;;;;;;;;4972604;28;20205;-53
2022/06/05 12:32:55;;;;;;;2.77;2.57;;;;;;;;;;4972333;28;20219;-53
2022/06/05 12:35:25;;;;;;;3.50;2.70;;;;;;;;;;4972472;28;20204;-52
2022/06/05 12:37:55;;;;;;;3.20;2.90;;;;;;;;;;4972454;28;20701;-52
2022/06/05 12:40:29;;;;;;;3.10;2.80;;;;;;;;;;4972539;28;20195;-51
2022/06/05 12:42:58;;;;;;;3.33;2.80;;;;;;;;;;4972382;28;20238;-52
2022/06/05 12:45:25;;;;;;;4.27;3.00;;;;;;;;;;4972345;28;20221;-52
2022/06/05 12:47:56;;;;;;;3.63;2.70;;;;;;;;;;4972327;28;20461;-51
2022/06/05 12:50:31;;;;;;;3.00;2.70;;;;;;;;;;4972374;28;20284;-53
2022/06/05 12:52:59;;;;;;;3.07;2.73;;;;;;;;;;4972194;28;20233;-54
2022/06/05 12:55:29;;;;;;;3.20;2.40;;;;;;;;;;4972348;28;20230;-53
2022/06/05 12:57:58;;;;;;;3.43;2.70;;;;;;;;;;4972364;28;20257;-52
2022/06/05 13:00:31;;;;;;;3.07;2.63;;;;;;;;;;4972152;28;20198;-52
2022/06/05 13:02:59;;;;;;;3.57;2.60;;;;;;;;;;4972024;28;20222;-53
2022/06/05 13:05:30;;;;;;;3.00;2.70;;;;;;;;;;4972148;28;20401;-52
2022/06/05 13:07:58;;;;;;;2.77;2.50;;;;;;;;;;4972020;28;20213;-53
2022/06/05 13:10:29;;;;;;;5.47;2.87;;;;;;;;;;4971942;28;20209;-52
2022/06/05 13:13:01;;;;;;;3.60;2.90;;;;;;;;;;4974153;28;20207;-57
2022/06/05 13:15:28;;;;;;;3.03;2.73;;;;;;;;;;4975714;28;20199;-53
2022/06/05 13:17:56;;;;;;;4.53;2.80;;;;;;;;;;4975649;28;20220;-53
2022/06/05 13:20:25;;;;;;;3.20;2.90;;;;;;;;;;4975885;28;20198;-54
2022/06/05 13:22:55;;;;;;;2.80;2.60;;;;;;;;;;4974180;28;20308;-55
2022/06/05 13:25:23;;;;;;;3.37;3.07;;;;;;;;;;4995054;28;20225;-54
2022/06/05 13:27:55;;;;;;;4.63;3.03;;;;;;;;;;4994795;28;20236;-53
2022/06/05 13:30:23;;;;;;;2.93;2.67;;;;;;;;;;4995244;28;20202;-54
2022/06/05 13:32:55;;;;;;;3.53;2.70;;;;;;;;;;4994947;28;20426;-53
2022/06/05 13:35:29;;;;;;;3.30;3.00;;;;;;;;;;4994551;28;20278;-55
2022/06/05 13:37:57;;;;;;;3.40;2.90;;;;;;;;;;4994410;28;20574;-54
2022/06/05 13:40:28;;;;;;;4.17;2.80;;;;;;;;;;4992718;28;20287;-52
2022/06/05 13:42:54;;;;;;;3.93;2.80;;;;;;;;;;4993897;28;20233;-53
2022/06/05 13:45:26;;;;;;;3.13;2.83;;;;;;;;;;4994545;28;20643;-52
2022/06/05 13:47:55;;;;;;;3.70;2.87;;;;;;;;;;4994857;28;20219;-52
2022/06/05 13:50:27;;;;;;;3.37;3.07;;;;;;;;;;4994978;28;20258;-52
2022/06/05 13:53:00;;;;;;;4.60;2.80;;;;;;;;;;4994836;28;20229;-52
2022/06/05 13:55:28;;;;;;;3.20;2.90;;;;;;;;;;4994812;28;20216;-52
2022/06/05 13:57:56;;;;;;;3.97;2.87;;;;;;;;;;4994416;28;20201;-52
2022/06/05 14:00:26;;;;;;;3.17;2.83;;;;;;;;;;4992724;28;20205;-52
2022/06/05 14:03:03;;;;;;;3.10;2.83;;;;;;;;;;4994186;28;20227;-52
2022/06/05 14:05:35;;;;;;;4.20;3.17;;;;;;;;;;4994354;28;20208;-53
2022/06/05 14:08:04;;;;;;;3.90;2.50;;;;;;;;;;4993842;28;20205;-53
2022/06/05 14:10:31;;;;;;;4.60;2.90;;;;;;;;;;4994039;28;20217;-53
2022/06/05 14:12:59;;;;;;;3.97;2.80;;;;;;;;;;4993940;28;20232;-52
2022/06/05 14:15:28;;;;;;;2.87;2.60;;;;;;;;;;4993856;28;20376;-52
2022/06/05 14:17:55;;;;;;;3.50;2.77;;;;;;;;;;4993803;28;20574;-53
2022/06/05 14:20:23;;;;;;;6.17;3.00;;;;;;;;;;4993933;28;20212;-53
2022/06/05 14:22:50;;;;;;;3.23;2.93;;;;;;;;;;4993397;28;20279;-52
2022/06/05 14:25:20;;;;;;;4.50;2.80;;;;;;;;;;4992824;28;20229;-52
2022/06/05 14:27:52;;;;;;;3.50;2.70;;;;;;;;;;4993514;28;20652;-52
2022/06/05 14:30:19;;;;;;;5.17;2.63;;;;;;;;;;4993786;28;20562;-52
2022/06/05 14:32:47;;;;;;;3.17;2.83;;;;;;;;;;4993463;28;20193;-53
2022/06/05 14:35:20;;;;;;;3.37;2.77;;;;;;;;;;4993415;28;20205;-52
2022/06/05 14:37:49;;;;;;;3.20;2.70;;;;;;;;;;4993301;28;20211;-52
2022/06/05 14:40:17;;;;;;;3.13;2.70;;;;;;;;;;4993457;28;20236;-52
2022/06/05 14:42:45;;;;;;;2.90;2.57;;;;;;;;;;4993440;28;20251;-52
2022/06/05 14:45:14;;;;;;;3.20;2.90;;;;;;;;;;4993316;28;20284;-52
2022/06/05 14:47:44;;;;;;;3.30;2.90;;;;;;;;;;4993315;28;20689;-52
2022/06/05 14:50:14;;;;;;;3.13;2.83;;;;;;;;;;4993438;28;20560;-52
2022/06/05 14:52:43;;;;;;;3.23;2.97;;;;;;;;;;4993259;28;20614;-52
2022/06/05 14:58:01;;;;;;;3.00;2.60;;;;;;;;;;4993149;28;20198;-53
2022/06/05 15:00:29;;;;;;;3.03;2.77;;;;;;;;;;4993182;28;20224;-53
2022/06/05 15:03:02;;;;;;;3.33;3.03;;;;;;;;;;4993139;28;20268;-53
2022/06/05 15:05:31;;;;;;;3.13;2.70;;;;;;;;;;4993239;28;20209;-53
2022/06/05 15:07:59;;;;;;;3.10;2.80;;;;;;;;;;4993105;28;20212;-53
2022/06/05 15:10:28;;;;;;;3.80;3.50;;;;;;;;;;4992848;28;20626;-52